sensor_id;sensor_type;location;lat;lon;timestamp;P1;durP1;ratioP1;P2;durP2;ratioP2
41687;SDS011;27371;42.686;23.362;2023-04-01T00:01:18;21.50;;;11.63;;
41687;SDS011;27371;42.686;23.362;2023-04-01T00:03:44;23.73;;;12.50;;
41687;SDS011;27371;42.686;23.362;2023-04-01T00:06:11;23.05;;;11.25;;
41687;SDS011;27371;42.686;23.362;2023-04-01T00:08:38;18.35;;;9.77;;
41687;SDS011;27371;42.686;23.362;2023-04-01T00:11:04;18.50;;;11.18;;
41687;SDS011;27371;42.686;23.362;2023-04-01T00:13:30;18.23;;;10.38;;
41687;SDS011;27371;42.686;23.362;2023-04-01T00:15:56;20.40;;;10.25;;
41687;SDS011;27371;42.686;23.362;2023-04-01T00:18:21;20.23;;;10.85;;
41687;SDS011;27371;42.686;23.362;2023-04-01T00:20:48;18.10;;;9.45;;
41687;SDS011;27371;42.686;23.362;2023-04-01T00:23:15;20.75;;;10.38;;
41687;SDS011;27371;42.686;23.362;2023-04-01T00:25:41;16.20;;;9.60;;
41687;SDS011;27371;42.686;23.362;2023-04-01T00:28:07;15.40;;;8.90;;
41687;SDS011;27371;42.686;23.362;2023-04-01T00:30:33;17.17;;;8.82;;
41687;SDS011;27371;42.686;23.362;2023-04-01T00:33:00;20.15;;;9.23;;
41687;SDS011;27371;42.686;23.362;2023-04-01T00:35:26;20.08;;;10.02;;
41687;SDS011;27371;42.686;23.362;2023-04-01T00:37:51;19.45;;;10.23;;
41687;SDS011;27371;42.686;23.362;2023-04-01T00:40:22;12.50;;;7.50;;
41687;SDS011;27371;42.686;23.362;2023-04-01T00:42:56;18.42;;;7.75;;
41687;SDS011;27371;42.686;23.362;2023-04-01T00:45:32;16.30;;;7.30;;
41687;SDS011;27371;42.686;23.362;2023-04-01T00:48:22;13.57;;;6.72;;
41687;SDS011;27371;42.686;23.362;2023-04-01T00:51:10;14.13;;;7.22;;
41687;SDS011;27371;42.686;23.362;2023-04-01T00:53:38;12.88;;;7.13;;
41687;SDS011;27371;42.686;23.362;2023-04-01T00:56:09;15.57;;;7.15;;
41687;SDS011;27371;42.686;23.362;2023-04-01T00:58:39;11.43;;;6.82;;
41687;SDS011;27371;42.686;23.362;2023-04-01T01:01:08;11.80;;;6.70;;
41687;SDS011;27371;42.686;23.362;2023-04-01T01:03:35;14.50;;;6.95;;
41687;SDS011;27371;42.686;23.362;2023-04-01T01:06:11;13.38;;;6.70;;
41687;SDS011;27371;42.686;23.362;2023-04-01T01:11:20;15.52;;;7.53;;
41687;SDS011;27371;42.686;23.362;2023-04-01T01:14:34;14.68;;;7.60;;
41687;SDS011;27371;42.686;23.362;2023-04-01T01:17:27;17.83;;;7.20;;
41687;SDS011;27371;42.686;23.362;2023-04-01T01:25:20;13.10;;;6.90;;
41687;SDS011;27371;42.686;23.362;2023-04-01T01:33:52;10.77;;;6.03;;
41687;SDS011;27371;42.686;23.362;2023-04-01T01:36:22;10.98;;;5.25;;
41687;SDS011;27371;42.686;23.362;2023-04-01T01:38:51;12.50;;;6.22;;
41687;SDS011;27371;42.686;23.362;2023-04-01T01:41:17;13.50;;;6.18;;
41687;SDS011;27371;42.686;23.362;2023-04-01T01:43:46;11.32;;;5.60;;
41687;SDS011;27371;42.686;23.362;2023-04-01T01:46:14;9.75;;;4.75;;
41687;SDS011;27371;42.686;23.362;2023-04-01T01:48:44;9.23;;;4.38;;
41687;SDS011;27371;42.686;23.362;2023-04-01T01:51:12;19.70;;;4.65;;
41687;SDS011;27371;42.686;23.362;2023-04-01T01:53:38;11.30;;;4.57;;
41687;SDS011;27371;42.686;23.362;2023-04-01T01:56:03;11.20;;;4.53;;
41687;SDS011;27371;42.686;23.362;2023-04-01T01:59:03;11.98;;;3.88;;
41687;SDS011;27371;42.686;23.362;2023-04-01T02:01:24;9.45;;;4.85;;
41687;SDS011;27371;42.686;23.362;2023-04-01T02:03:53;9.02;;;3.72;;
41687;SDS011;27371;42.686;23.362;2023-04-01T02:06:21;9.15;;;3.40;;
41687;SDS011;27371;42.686;23.362;2023-04-01T02:08:53;11.50;;;4.07;;
41687;SDS011;27371;42.686;23.362;2023-04-01T02:11:24;11.32;;;3.78;;
41687;SDS011;27371;42.686;23.362;2023-04-01T02:13:58;9.73;;;4.05;;
41687;SDS011;27371;42.686;23.362;2023-04-01T02:19:10;8.75;;;4.00;;
41687;SDS011;27371;42.686;23.362;2023-04-01T02:21:38;5.05;;;2.83;;
41687;SDS011;27371;42.686;23.362;2023-04-01T02:24:08;6.93;;;3.08;;
41687;SDS011;27371;42.686;23.362;2023-04-01T02:26:37;7.68;;;3.70;;
41687;SDS011;27371;42.686;23.362;2023-04-01T02:29:03;5.55;;;2.88;;
41687;SDS011;27371;42.686;23.362;2023-04-01T02:31:31;7.95;;;3.28;;
41687;SDS011;27371;42.686;23.362;2023-04-01T02:33:58;7.18;;;3.35;;
41687;SDS011;27371;42.686;23.362;2023-04-01T02:36:24;18.48;;;4.97;;
41687;SDS011;27371;42.686;23.362;2023-04-01T02:38:50;11.20;;;4.25;;
41687;SDS011;27371;42.686;23.362;2023-04-01T02:41:17;9.88;;;4.97;;
41687;SDS011;27371;42.686;23.362;2023-04-01T02:43:43;9.48;;;5.45;;
41687;SDS011;27371;42.686;23.362;2023-04-01T02:46:08;10.80;;;5.13;;
41687;SDS011;27371;42.686;23.362;2023-04-01T02:48:33;14.50;;;5.28;;
41687;SDS011;27371;42.686;23.362;2023-04-01T02:50:59;10.02;;;5.72;;
41687;SDS011;27371;42.686;23.362;2023-04-01T02:53:24;13.73;;;5.65;;
41687;SDS011;27371;42.686;23.362;2023-04-01T02:55:50;13.48;;;6.03;;
41687;SDS011;27371;42.686;23.362;2023-04-01T02:58:16;11.90;;;5.85;;
41687;SDS011;27371;42.686;23.362;2023-04-01T03:00:42;17.95;;;6.82;;
41687;SDS011;27371;42.686;23.362;2023-04-01T03:03:08;19.27;;;7.30;;
41687;SDS011;27371;42.686;23.362;2023-04-01T03:05:34;15.02;;;6.75;;
41687;SDS011;27371;42.686;23.362;2023-04-01T03:08:00;18.17;;;7.65;;
41687;SDS011;27371;42.686;23.362;2023-04-01T03:10:26;16.00;;;7.53;;
41687;SDS011;27371;42.686;23.362;2023-04-01T03:12:52;14.02;;;6.13;;
41687;SDS011;27371;42.686;23.362;2023-04-01T03:15:17;12.73;;;6.07;;
41687;SDS011;27371;42.686;23.362;2023-04-01T03:17:43;16.27;;;7.63;;
41687;SDS011;27371;42.686;23.362;2023-04-01T03:20:09;15.10;;;6.35;;
41687;SDS011;27371;42.686;23.362;2023-04-01T03:22:35;16.05;;;6.55;;
41687;SDS011;27371;42.686;23.362;2023-04-01T03:25:02;15.18;;;6.07;;
41687;SDS011;27371;42.686;23.362;2023-04-01T03:27:28;11.23;;;6.15;;
41687;SDS011;27371;42.686;23.362;2023-04-01T03:29:54;13.80;;;6.68;;
41687;SDS011;27371;42.686;23.362;2023-04-01T03:32:20;11.82;;;6.63;;
41687;SDS011;27371;42.686;23.362;2023-04-01T03:34:45;15.38;;;7.93;;
41687;SDS011;27371;42.686;23.362;2023-04-01T03:37:11;15.65;;;8.13;;
41687;SDS011;27371;42.686;23.362;2023-04-01T03:39:37;14.15;;;7.75;;
41687;SDS011;27371;42.686;23.362;2023-04-01T03:42:02;14.73;;;7.65;;
41687;SDS011;27371;42.686;23.362;2023-04-01T03:44:31;18.55;;;8.02;;
41687;SDS011;27371;42.686;23.362;2023-04-01T03:46:57;18.65;;;7.57;;
41687;SDS011;27371;42.686;23.362;2023-04-01T03:49:22;17.80;;;8.07;;
41687;SDS011;27371;42.686;23.362;2023-04-01T03:51:48;14.85;;;8.77;;
41687;SDS011;27371;42.686;23.362;2023-04-01T03:54:13;17.35;;;8.55;;
41687;SDS011;27371;42.686;23.362;2023-04-01T03:56:39;21.10;;;8.20;;
41687;SDS011;27371;42.686;23.362;2023-04-01T03:59:06;21.20;;;8.10;;
41687;SDS011;27371;42.686;23.362;2023-04-01T04:01:32;18.67;;;8.45;;
41687;SDS011;27371;42.686;23.362;2023-04-01T04:03:58;18.98;;;9.13;;
41687;SDS011;27371;42.686;23.362;2023-04-01T04:06:24;20.75;;;8.05;;
41687;SDS011;27371;42.686;23.362;2023-04-01T04:08:50;14.85;;;6.88;;
41687;SDS011;27371;42.686;23.362;2023-04-01T04:11:15;16.45;;;6.72;;
41687;SDS011;27371;42.686;23.362;2023-04-01T04:13:42;17.20;;;6.70;;
41687;SDS011;27371;42.686;23.362;2023-04-01T04:16:08;17.23;;;8.18;;
41687;SDS011;27371;42.686;23.362;2023-04-01T04:18:34;16.77;;;7.85;;
41687;SDS011;27371;42.686;23.362;2023-04-01T04:21:00;15.73;;;7.88;;
41687;SDS011;27371;42.686;23.362;2023-04-01T04:23:26;12.75;;;6.82;;
41687;SDS011;27371;42.686;23.362;2023-04-01T04:26:06;14.45;;;7.35;;
41687;SDS011;27371;42.686;23.362;2023-04-01T04:28:33;20.88;;;8.43;;
41687;SDS011;27371;42.686;23.362;2023-04-01T04:30:59;15.57;;;7.95;;
41687;SDS011;27371;42.686;23.362;2023-04-01T04:33:25;15.43;;;7.32;;
41687;SDS011;27371;42.686;23.362;2023-04-01T04:35:51;15.02;;;6.30;;
41687;SDS011;27371;42.686;23.362;2023-04-01T04:38:20;14.52;;;6.95;;
41687;SDS011;27371;42.686;23.362;2023-04-01T04:40:46;13.30;;;6.47;;
41687;SDS011;27371;42.686;23.362;2023-04-01T04:43:12;12.23;;;5.80;;
41687;SDS011;27371;42.686;23.362;2023-04-01T04:45:39;11.25;;;5.53;;
41687;SDS011;27371;42.686;23.362;2023-04-01T04:48:06;19.15;;;6.63;;
41687;SDS011;27371;42.686;23.362;2023-04-01T04:50:33;12.90;;;6.28;;
41687;SDS011;27371;42.686;23.362;2023-04-01T04:52:58;11.95;;;5.13;;
41687;SDS011;27371;42.686;23.362;2023-04-01T04:55:24;10.98;;;4.93;;
41687;SDS011;27371;42.686;23.362;2023-04-01T04:57:49;13.27;;;4.65;;
41687;SDS011;27371;42.686;23.362;2023-04-01T05:00:15;14.25;;;4.68;;
41687;SDS011;27371;42.686;23.362;2023-04-01T05:02:40;11.77;;;4.97;;
41687;SDS011;27371;42.686;23.362;2023-04-01T05:05:06;9.90;;;4.65;;
41687;SDS011;27371;42.686;23.362;2023-04-01T05:07:32;11.88;;;4.78;;
41687;SDS011;27371;42.686;23.362;2023-04-01T05:09:58;9.00;;;4.63;;
41687;SDS011;27371;42.686;23.362;2023-04-01T05:12:24;11.25;;;4.60;;
41687;SDS011;27371;42.686;23.362;2023-04-01T05:14:50;11.85;;;4.60;;
41687;SDS011;27371;42.686;23.362;2023-04-01T05:17:15;7.53;;;4.25;;
41687;SDS011;27371;42.686;23.362;2023-04-01T05:19:40;8.68;;;3.92;;
41687;SDS011;27371;42.686;23.362;2023-04-01T05:22:06;13.13;;;4.72;;
41687;SDS011;27371;42.686;23.362;2023-04-01T05:24:32;13.30;;;4.40;;
41687;SDS011;27371;42.686;23.362;2023-04-01T05:26:58;11.20;;;4.32;;
41687;SDS011;27371;42.686;23.362;2023-04-01T05:29:24;8.85;;;4.25;;
41687;SDS011;27371;42.686;23.362;2023-04-01T05:31:50;11.35;;;4.43;;
41687;SDS011;27371;42.686;23.362;2023-04-01T05:34:16;14.25;;;4.97;;
41687;SDS011;27371;42.686;23.362;2023-04-01T05:36:42;11.93;;;4.95;;
41687;SDS011;27371;42.686;23.362;2023-04-01T05:39:08;10.50;;;5.00;;
41687;SDS011;27371;42.686;23.362;2023-04-01T05:41:34;13.63;;;4.95;;
41687;SDS011;27371;42.686;23.362;2023-04-01T05:44:00;9.77;;;4.72;;
41687;SDS011;27371;42.686;23.362;2023-04-01T05:46:26;12.18;;;7.28;;
41687;SDS011;27371;42.686;23.362;2023-04-01T05:48:51;10.77;;;3.75;;
41687;SDS011;27371;42.686;23.362;2023-04-01T05:51:17;13.95;;;4.57;;
41687;SDS011;27371;42.686;23.362;2023-04-01T05:56:27;9.55;;;4.03;;
41687;SDS011;27371;42.686;23.362;2023-04-01T05:58:53;15.75;;;4.85;;
41687;SDS011;27371;42.686;23.362;2023-04-01T06:01:19;17.08;;;5.75;;
41687;SDS011;27371;42.686;23.362;2023-04-01T06:03:45;9.23;;;4.95;;
41687;SDS011;27371;42.686;23.362;2023-04-01T06:06:13;13.52;;;4.40;;
41687;SDS011;27371;42.686;23.362;2023-04-01T06:08:40;9.18;;;4.43;;
41687;SDS011;27371;42.686;23.362;2023-04-01T06:30:04;14.00;;;4.70;;
41687;SDS011;27371;42.686;23.362;2023-04-01T06:46:53;5.85;;;3.55;;
41687;SDS011;27371;42.686;23.362;2023-04-01T06:51:53;7.40;;;3.38;;
41687;SDS011;27371;42.686;23.362;2023-04-01T06:54:32;6.20;;;3.50;;
41687;SDS011;27371;42.686;23.362;2023-04-01T06:59:50;13.40;;;4.03;;
41687;SDS011;27371;42.686;23.362;2023-04-01T07:02:33;11.90;;;4.20;;
41687;SDS011;27371;42.686;23.362;2023-04-01T07:05:04;9.70;;;3.40;;
41687;SDS011;27371;42.686;23.362;2023-04-01T07:07:38;13.63;;;4.63;;
41687;SDS011;27371;42.686;23.362;2023-04-01T07:10:13;9.77;;;4.55;;
41687;SDS011;27371;42.686;23.362;2023-04-01T07:12:49;12.05;;;3.85;;
41687;SDS011;27371;42.686;23.362;2023-04-01T07:15:20;14.57;;;4.57;;
41687;SDS011;27371;42.686;23.362;2023-04-01T07:18:01;11.07;;;4.50;;
41687;SDS011;27371;42.686;23.362;2023-04-01T07:20:30;10.07;;;3.72;;
41687;SDS011;27371;42.686;23.362;2023-04-01T07:22:58;12.85;;;4.90;;
41687;SDS011;27371;42.686;23.362;2023-04-01T07:25:28;14.70;;;5.28;;
41687;SDS011;27371;42.686;23.362;2023-04-01T07:28:05;13.25;;;5.07;;
41687;SDS011;27371;42.686;23.362;2023-04-01T07:38:53;10.90;;;4.25;;
41687;SDS011;27371;42.686;23.362;2023-04-01T08:00:51;9.57;;;3.15;;
41687;SDS011;27371;42.686;23.362;2023-04-01T08:06:35;7.38;;;3.50;;
41687;SDS011;27371;42.686;23.362;2023-04-01T08:09:17;8.75;;;3.13;;
41687;SDS011;27371;42.686;23.362;2023-04-01T08:17:02;9.38;;;2.70;;
41687;SDS011;27371;42.686;23.362;2023-04-01T08:19:43;7.25;;;3.05;;
41687;SDS011;27371;42.686;23.362;2023-04-01T08:22:18;11.32;;;3.65;;
41687;SDS011;27371;42.686;23.362;2023-04-01T08:24:48;11.57;;;3.67;;
41687;SDS011;27371;42.686;23.362;2023-04-01T08:30:15;7.03;;;2.70;;
41687;SDS011;27371;42.686;23.362;2023-04-01T08:32:42;13.02;;;3.78;;
41687;SDS011;27371;42.686;23.362;2023-04-01T08:37:49;11.25;;;3.80;;
41687;SDS011;27371;42.686;23.362;2023-04-01T08:40:27;8.15;;;2.72;;
41687;SDS011;27371;42.686;23.362;2023-04-01T08:52:29;10.63;;;2.85;;
41687;SDS011;27371;42.686;23.362;2023-04-01T08:58:11;10.57;;;2.63;;
41687;SDS011;27371;42.686;23.362;2023-04-01T09:09:50;10.98;;;3.03;;
41687;SDS011;27371;42.686;23.362;2023-04-01T09:15:30;13.40;;;2.78;;
41687;SDS011;27371;42.686;23.362;2023-04-01T09:29:11;10.65;;;2.92;;
41687;SDS011;27371;42.686;23.362;2023-04-01T09:35:22;7.72;;;2.55;;
41687;SDS011;27371;42.686;23.362;2023-04-01T10:14:11;8.18;;;2.90;;
41687;SDS011;27371;42.686;23.362;2023-04-01T11:24:10;9.45;;;3.42;;
41687;SDS011;27371;42.686;23.362;2023-04-01T11:34:51;21.88;;;5.63;;
41687;SDS011;27371;42.686;23.362;2023-04-01T11:40:32;10.63;;;2.63;;
41687;SDS011;27371;42.686;23.362;2023-04-01T11:43:42;8.50;;;2.63;;
41687;SDS011;27371;42.686;23.362;2023-04-01T11:46:10;9.50;;;2.05;;
41687;SDS011;27371;42.686;23.362;2023-04-01T11:57:43;11.52;;;2.15;;
41687;SDS011;27371;42.686;23.362;2023-04-01T12:16:22;9.32;;;2.58;;
41687;SDS011;27371;42.686;23.362;2023-04-01T12:19:07;13.48;;;3.85;;
41687;SDS011;27371;42.686;23.362;2023-04-01T12:24:25;9.70;;;2.80;;
41687;SDS011;27371;42.686;23.362;2023-04-01T12:37:44;6.50;;;2.42;;
41687;SDS011;27371;42.686;23.362;2023-04-01T12:40:20;8.13;;;2.83;;
41687;SDS011;27371;42.686;23.362;2023-04-01T12:43:02;6.78;;;2.92;;
41687;SDS011;27371;42.686;23.362;2023-04-01T12:45:32;6.18;;;2.33;;
41687;SDS011;27371;42.686;23.362;2023-04-01T12:51:00;5.90;;;2.33;;
41687;SDS011;27371;42.686;23.362;2023-04-01T12:53:43;9.05;;;2.70;;
41687;SDS011;27371;42.686;23.362;2023-04-01T13:07:39;8.60;;;2.60;;
41687;SDS011;27371;42.686;23.362;2023-04-01T13:15:42;5.60;;;2.10;;
41687;SDS011;27371;42.686;23.362;2023-04-01T13:18:27;4.40;;;2.15;;
41687;SDS011;27371;42.686;23.362;2023-04-01T13:21:08;5.85;;;2.70;;
41687;SDS011;27371;42.686;23.362;2023-04-01T13:26:59;8.55;;;4.15;;
41687;SDS011;27371;42.686;23.362;2023-04-01T13:29:57;10.27;;;5.03;;
41687;SDS011;27371;42.686;23.362;2023-04-01T13:32:29;16.17;;;6.63;;
41687;SDS011;27371;42.686;23.362;2023-04-01T13:35:26;11.40;;;6.13;;
41687;SDS011;27371;42.686;23.362;2023-04-01T13:43:35;7.28;;;3.58;;
41687;SDS011;27371;42.686;23.362;2023-04-01T13:49:23;14.45;;;6.47;;
41687;SDS011;27371;42.686;23.362;2023-04-01T13:54:53;13.45;;;5.75;;
41687;SDS011;27371;42.686;23.362;2023-04-01T13:57:41;6.63;;;3.38;;
41687;SDS011;27371;42.686;23.362;2023-04-01T14:25:17;5.85;;;2.20;;
41687;SDS011;27371;42.686;23.362;2023-04-01T14:37:03;8.30;;;3.28;;
41687;SDS011;27371;42.686;23.362;2023-04-01T14:39:48;8.15;;;3.10;;
41687;SDS011;27371;42.686;23.362;2023-04-01T14:47:59;7.65;;;3.70;;
41687;SDS011;27371;42.686;23.362;2023-04-01T14:50:28;6.18;;;2.60;;
41687;SDS011;27371;42.686;23.362;2023-04-01T15:05:10;6.07;;;3.08;;
41687;SDS011;27371;42.686;23.362;2023-04-01T15:13:13;5.32;;;2.75;;
41687;SDS011;27371;42.686;23.362;2023-04-01T15:26:26;4.13;;;1.73;;
41687;SDS011;27371;42.686;23.362;2023-04-01T15:31:40;5.93;;;2.80;;
41687;SDS011;27371;42.686;23.362;2023-04-01T15:42:55;5.53;;;2.92;;
41687;SDS011;27371;42.686;23.362;2023-04-01T15:45:41;6.57;;;2.75;;
41687;SDS011;27371;42.686;23.362;2023-04-01T15:51:31;8.77;;;4.10;;
41687;SDS011;27371;42.686;23.362;2023-04-01T16:08:16;3.20;;;2.10;;
41687;SDS011;27371;42.686;23.362;2023-04-01T16:11:04;3.60;;;2.05;;
41687;SDS011;27371;42.686;23.362;2023-04-01T16:13:54;5.78;;;2.28;;
41687;SDS011;27371;42.686;23.362;2023-04-01T16:22:06;5.88;;;2.60;;
41687;SDS011;27371;42.686;23.362;2023-04-01T16:24:43;3.88;;;2.38;;
41687;SDS011;27371;42.686;23.362;2023-04-01T16:29:55;4.13;;;2.63;;
41687;SDS011;27371;42.686;23.362;2023-04-01T16:48:24;4.07;;;2.50;;
41687;SDS011;27371;42.686;23.362;2023-04-01T16:50:59;3.05;;;2.00;;
41687;SDS011;27371;42.686;23.362;2023-04-01T16:56:40;2.53;;;1.85;;
41687;SDS011;27371;42.686;23.362;2023-04-01T16:59:19;3.85;;;2.25;;
41687;SDS011;27371;42.686;23.362;2023-04-01T17:01:53;4.65;;;2.90;;
41687;SDS011;27371;42.686;23.362;2023-04-01T17:09:51;3.58;;;2.17;;
41687;SDS011;27371;42.686;23.362;2023-04-01T17:17:49;1.85;;;1.15;;
41687;SDS011;27371;42.686;23.362;2023-04-01T18:04:42;3.17;;;1.70;;
41687;SDS011;27371;42.686;23.362;2023-04-01T18:26:22;2.45;;;1.80;;
41687;SDS011;27371;42.686;23.362;2023-04-01T18:28:54;2.33;;;1.30;;
41687;SDS011;27371;42.686;23.362;2023-04-01T18:31:43;2.08;;;1.38;;
41687;SDS011;27371;42.686;23.362;2023-04-01T18:34:15;1.60;;;1.30;;
41687;SDS011;27371;42.686;23.362;2023-04-01T18:36:53;2.08;;;1.40;;
41687;SDS011;27371;42.686;23.362;2023-04-01T18:39:41;2.95;;;1.50;;
41687;SDS011;27371;42.686;23.362;2023-04-01T18:50:14;1.67;;;1.25;;
41687;SDS011;27371;42.686;23.362;2023-04-01T18:55:47;2.15;;;1.45;;
41687;SDS011;27371;42.686;23.362;2023-04-01T19:00:44;2.10;;;1.45;;
41687;SDS011;27371;42.686;23.362;2023-04-01T19:03:32;3.72;;;1.48;;
41687;SDS011;27371;42.686;23.362;2023-04-01T19:06:15;5.25;;;1.90;;
41687;SDS011;27371;42.686;23.362;2023-04-01T19:08:48;3.22;;;1.75;;
41687;SDS011;27371;42.686;23.362;2023-04-01T19:27:51;2.08;;;1.00;;
41687;SDS011;27371;42.686;23.362;2023-04-01T19:36:20;2.47;;;1.48;;
41687;SDS011;27371;42.686;23.362;2023-04-01T19:53:01;1.17;;;0.80;;
41687;SDS011;27371;42.686;23.362;2023-04-01T19:58:44;1.92;;;0.85;;
41687;SDS011;27371;42.686;23.362;2023-04-01T20:03:54;1.67;;;0.70;;
41687;SDS011;27371;42.686;23.362;2023-04-01T20:06:39;1.10;;;0.60;;
41687;SDS011;27371;42.686;23.362;2023-04-01T20:15:28;2.70;;;1.60;;
41687;SDS011;27371;42.686;23.362;2023-04-01T20:18:04;2.05;;;1.10;;
41687;SDS011;27371;42.686;23.362;2023-04-01T20:20:39;3.63;;;1.00;;
41687;SDS011;27371;42.686;23.362;2023-04-01T20:26:04;4.60;;;1.77;;
41687;SDS011;27371;42.686;23.362;2023-04-01T20:31:31;5.47;;;1.40;;
41687;SDS011;27371;42.686;23.362;2023-04-01T20:42:34;1.85;;;1.30;;
41687;SDS011;27371;42.686;23.362;2023-04-01T20:45:30;1.50;;;1.15;;
41687;SDS011;27371;42.686;23.362;2023-04-01T20:51:14;1.85;;;1.00;;
41687;SDS011;27371;42.686;23.362;2023-04-01T20:53:44;1.70;;;1.00;;
41687;SDS011;27371;42.686;23.362;2023-04-01T20:56:40;1.88;;;1.20;;
41687;SDS011;27371;42.686;23.362;2023-04-01T21:07:22;1.98;;;1.33;;
41687;SDS011;27371;42.686;23.362;2023-04-01T21:15:33;2.75;;;1.40;;
41687;SDS011;27371;42.686;23.362;2023-04-01T21:26:52;4.45;;;1.50;;
41687;SDS011;27371;42.686;23.362;2023-04-01T21:37:49;2.20;;;0.90;;
41687;SDS011;27371;42.686;23.362;2023-04-01T21:43:20;3.13;;;0.82;;
41687;SDS011;27371;42.686;23.362;2023-04-01T21:46:12;1.27;;;0.75;;
41687;SDS011;27371;42.686;23.362;2023-04-01T22:00:53;1.33;;;0.70;;
41687;SDS011;27371;42.686;23.362;2023-04-01T22:06:14;1.10;;;0.63;;
41687;SDS011;27371;42.686;23.362;2023-04-01T22:12:06;1.70;;;0.70;;
41687;SDS011;27371;42.686;23.362;2023-04-01T22:17:21;1.50;;;0.80;;
41687;SDS011;27371;42.686;23.362;2023-04-01T22:19:59;1.20;;;0.70;;
41687;SDS011;27371;42.686;23.362;2023-04-01T22:28:08;1.67;;;0.70;;
41687;SDS011;27371;42.686;23.362;2023-04-01T22:30:46;1.92;;;0.90;;
41687;SDS011;27371;42.686;23.362;2023-04-01T22:35:57;3.88;;;1.10;;
41687;SDS011;27371;42.686;23.362;2023-04-01T22:38:50;2.03;;;0.88;;
41687;SDS011;27371;42.686;23.362;2023-04-01T22:55:59;1.13;;;0.60;;
41687;SDS011;27371;42.686;23.362;2023-04-01T22:58:36;3.10;;;1.02;;
41687;SDS011;27371;42.686;23.362;2023-04-01T23:01:10;2.58;;;0.98;;
41687;SDS011;27371;42.686;23.362;2023-04-01T23:03:41;1.10;;;0.50;;
41687;SDS011;27371;42.686;23.362;2023-04-01T23:06:16;1.23;;;0.63;;
41687;SDS011;27371;42.686;23.362;2023-04-01T23:11:21;3.92;;;0.70;;
41687;SDS011;27371;42.686;23.362;2023-04-01T23:13:53;2.00;;;0.82;;
41687;SDS011;27371;42.686;23.362;2023-04-01T23:16:30;2.83;;;0.90;;
41687;SDS011;27371;42.686;23.362;2023-04-01T23:21:52;1.65;;;0.60;;
41687;SDS011;27371;42.686;23.362;2023-04-01T23:29:35;0.87;;;0.40;;
41687;SDS011;27371;42.686;23.362;2023-04-01T23:32:05;2.47;;;0.60;;
41687;SDS011;27371;42.686;23.362;2023-04-01T23:34:38;1.90;;;0.60;;
41687;SDS011;27371;42.686;23.362;2023-04-01T23:37:10;1.98;;;0.82;;
41687;SDS011;27371;42.686;23.362;2023-04-01T23:39:38;1.23;;;0.70;;
41687;SDS011;27371;42.686;23.362;2023-04-01T23:45:13;3.80;;;0.52;;
41687;SDS011;27371;42.686;23.362;2023-04-01T23:47:44;1.27;;;0.60;;
41687;SDS011;27371;42.686;23.362;2023-04-01T23:50:20;3.42;;;0.70;;
41687;SDS011;27371;42.686;23.362;2023-04-01T23:55:33;3.70;;;0.60;;
